Terminal Aerodrome Forecast
Issued by NWS

Home | Current Version | Previous Version | Text Only | Print | Product List | Glossary On
Versions: 1 2 3 4 5 6 7 8 9 10 11 12
105
FTUS44 KJAN 280536
TAFHKS
TAF
KHKS 280536Z 2806/2906 19008KT P6SM SCT050
     FM280800 19007KT P6SM BKN015 BKN025
     FM281500 21012G20KT P6SM SCT025 BKN045
     FM282000 20010KT P6SM VCTS BKN050CB=

USA.gov is the U.S. government's official web portal to all federal, state and local government web resources and services.